CSUN Campus Station - National Weather Service Data Page - PST Time




                Date      RH     Dew  Seasonal     Current   Max Air   Min Air    Wind    Wind    Wind    Gust     Bar    Rain
                Time       %   Point      Rain    Air Temp     Since     Since   Speed    Gust     Dir     Dir   Press   Total
                               Deg F    Inches       Deg F  Midnight  Midnight     MPH     MPH                      mb  Inches
------------------------------------------------------------------------------------------------------------------------------
    10/19/2014 00:00      75    50.6      0.10        58.9      79.9      52.6       0       1     320     319    1011    0.00
    10/19/2014 00:10      76    50.9      0.10        58.4      58.7      58.2       0       0       0     317    1011    0.00
    10/19/2014 00:20      76    51.1      0.10        58.7      59.0      58.2       0       0       0     338    1011    0.00
    10/19/2014 00:30      76    50.8      0.10        58.3      59.0      57.8       0       0       0     335    1011    0.00
    10/19/2014 00:40      77    50.6      0.10        57.8      59.0      57.6       0       0       0     335    1011    0.00
    10/19/2014 00:50      78    50.5      0.10        57.6      59.0      57.3       0       1     282     280    1011    0.00
    10/19/2014 01:00      78    50.6      0.10        57.5      59.0      57.3       0       1     276     285    1010    0.00
    10/19/2014 01:10      78    50.6      0.10        57.3      59.0      57.1       0       0       0     294    1010    0.00
    10/19/2014 01:20      79    50.7      0.10        57.2      59.0      57.0       0       1     304     326    1010    0.00
    10/19/2014 01:30      79    50.5      0.10        57.1      59.0      56.6       0       1     332     333    1010    0.00
    10/19/2014 01:40      80    50.4      0.10        56.7      59.0      56.4       0       0     316     316    1010    0.00
    10/19/2014 01:50      79    50.7      0.10        56.9      59.0      56.4       0       1     327     327    1010    0.00
    10/19/2014 02:00      80    50.6      0.10        56.8      59.0      56.4       0       1     338     344    1010    0.00
    10/19/2014 02:10      79    50.4      0.10        56.8      59.0      56.4       0       1     348     351    1010    0.00
    10/19/2014 02:20      80    50.2      0.10        56.5      59.0      56.2       0       1      20      23    1010    0.00
    10/19/2014 02:30      78    50.4      0.10        56.7      59.0      56.2       0       1      19      23    1010    0.00
    10/19/2014 02:40      78    49.6      0.10        56.4      59.0      56.1       0       1      90      91    1010    0.00
    10/19/2014 02:50      80    49.7      0.10        56.0      59.0      55.8       0       1      53      49    1010    0.00
    10/19/2014 03:00      80    49.6      0.10        55.7      59.0      55.2       0       1     172     171    1010    0.00
    10/19/2014 03:10      82    49.6      0.10        55.2      59.0      55.1       0       1     166     169    1010    0.00
    10/19/2014 03:20      82    50.0      0.10        55.4      59.0      55.0       0       0       0     130    1010    0.00
    10/19/2014 03:30      82    50.2      0.10        55.7      59.0      55.0       0       1     346     346    1010    0.00
    10/19/2014 03:40      80    50.2      0.10        56.0      59.0      55.0       0       1      18      42    1010    0.00
    10/19/2014 03:50      81    49.4      0.10        55.2      59.0      54.8       0       1     164     160    1010    0.00
    10/19/2014 04:00      81    49.7      0.10        55.1      59.0      54.8       0       1     350     334    1010    0.00
    10/19/2014 04:10      82    49.6      0.10        55.1      59.0      54.8       0       1      37      38    1010    0.00
    10/19/2014 04:20      81    49.5      0.10        55.1      59.0      54.7       0       2      36      39    1010    0.00
    10/19/2014 04:30      82    49.5      0.10        54.9      59.0      54.6       0       2      16      16    1010    0.00
    10/19/2014 04:40      81    49.6      0.10        55.1      59.0      54.6       0       1       5      18    1010    0.00
    10/19/2014 04:50      81    49.5      0.10        55.2      59.0      54.6       0       1     357     351    1010    0.00
    10/19/2014 05:00      82    48.8      0.10        54.5      59.0      54.1       0       0       0      22    1011    0.00
    10/19/2014 05:10      83    49.0      0.10        54.2      59.0      54.0       0       0       0     264    1011    0.00
    10/19/2014 05:20      84    49.3      0.10        54.2      59.0      53.9       0       1     286     286    1011    0.00
    10/19/2014 05:30      84    49.4      0.10        54.2      59.0      53.9       0       0       0     285    1011    0.00
    10/19/2014 05:40      83    49.2      0.10        54.2      59.0      53.9       0       1     324     325    1011    0.00
    10/19/2014 05:50      83    48.8      0.10        53.8      59.0      53.5       0       1      88      85    1011    0.00
    10/19/2014 06:00      83    48.8      0.10        53.6      59.0      53.4       0       1      87      89    1011    0.00
    10/19/2014 06:10      85    48.8      0.10        53.6      59.0      53.3       0       1      64      21    1011    0.00
    10/19/2014 06:20      84    49.3      0.10        53.9      59.0      53.3       0       1      34      39    1011    0.00
    10/19/2014 06:30      84    49.1      0.10        53.8      59.0      53.3       1       1      51      31    1011    0.00
    10/19/2014 06:40      84    49.1      0.10        54.0      59.0      53.3       0       1     224     213    1011    0.00
    10/19/2014 06:50      84    49.3      0.10        54.2      59.0      53.3       0       1     237     242    1011    0.00
    10/19/2014 07:00      81    49.9      0.10        55.1      59.0      53.3       1       2     257     260    1011    0.00
    10/19/2014 07:10      78    50.2      0.10        56.4      59.0      53.3       1       2     267     233    1012    0.00
    10/19/2014 07:20      76    50.2      0.10        57.3      59.0      53.3       1       2     241     267    1012    0.00
    10/19/2014 07:30      73    50.5      0.10        58.7      59.6      53.3       1       2     195     191    1012    0.00
    10/19/2014 07:40      68    50.5      0.10        60.4      61.0      53.3       1       2     184     171    1012    0.00
    10/19/2014 07:50      65    50.2      0.10        61.5      62.2      53.3       1       2     201     192    1012    0.00
    10/19/2014 08:00      64    50.4      0.10        62.8      63.3      53.3       1       2     230     237    1012    0.00
    10/19/2014 08:10      62    50.5      0.10        63.2      64.2      53.3       0       2     183     195    1012    0.00
    10/19/2014 08:20      61    50.9      0.10        64.5      65.2      53.3       0       2     181     194    1012    0.00
    10/19/2014 08:30      65    52.1      0.10        65.4      66.0      53.3       2       4     173     159    1012    0.00
    10/19/2014 08:40      64    53.4      0.10        65.3      66.0      53.3       2       4     154     168    1012    0.00
    10/19/2014 08:50      61    53.7      0.10        67.0      67.5      53.3       1       4     122     168    1012    0.00
    10/19/2014 09:00      62    53.2      0.10        67.0      67.8      53.3       2       5     183     165    1012    0.00
    10/19/2014 09:10      59    53.2      0.10        67.2      67.8      53.3       2       5     161     172    1012    0.00
    10/19/2014 09:20      55    53.1      0.10        68.4      70.0      53.3       0       3     193     213    1012    0.00
    10/19/2014 09:30      52    52.4      0.10        70.1      70.6      53.3       1       4     104     137    1012    0.00
    10/19/2014 09:40      50    51.8      0.10        70.7      71.1      53.3       2       5     144     145    1012    0.00
    10/19/2014 09:50      50    51.5      0.10        70.3      71.1      53.3       3       5     142      88    1012    0.00
    10/19/2014 10:00      50    51.5      0.10        71.2      71.8      53.3       1       4      93      94    1012    0.00
    10/19/2014 10:10      48    51.2      0.10        71.6      72.1      53.3       2       6      72      73    1012    0.00
    10/19/2014 10:20      49    51.5      0.10        71.8      72.4      53.3       2       4      98      56    1012    0.00
    10/19/2014 10:30      49    51.8      0.10        72.3      73.2      53.3       3       6     191     189    1012    0.00
    10/19/2014 10:40      45    52.0      0.10        73.4      74.3      53.3       2       5     172     147    1012    0.00
    10/19/2014 10:50      45    51.2      0.10        73.2      74.3      53.3       3       6     188     199    1012    0.00
    10/19/2014 11:00      43    50.9      0.10        73.4      74.7      53.3       2       5     199     194    1012    0.00
    10/19/2014 11:10      43    51.0      0.10        74.4      75.3      53.3       2       5     258     258    1012    0.00
    10/19/2014 11:20      42    51.2      0.10        75.7      76.1      53.3       3       7     207     196    1011    0.00
    10/19/2014 11:30      41    50.9      0.10        75.9      76.7      53.3       2       5     201     156    1011    0.00
    10/19/2014 11:40      41    50.7      0.10        76.9      77.5      53.3       2       6     211     185    1011    0.00
    10/19/2014 11:50      39    50.1      0.10        76.4      77.5      53.3       2       5     268     255    1011    0.00
    10/19/2014 12:00      37    50.2      0.10        78.0      78.7      53.3       1       3     222     255    1011    0.00
    10/19/2014 12:10      36    50.8      0.10        78.7      79.2      53.3       3       8     174     178    1011    0.00
    10/19/2014 12:20      37    49.9      0.10        78.2      79.2      53.3       2       5     176     218    1010    0.00
    10/19/2014 12:30      38    49.9      0.10        77.2      79.2      53.3       2       4      53      57    1010    0.00
    10/19/2014 12:40      37    49.8      0.10        78.2      79.2      53.3       2       7       9     285    1010    0.00
    10/19/2014 12:50      36    50.5      0.10        78.3      79.2      53.3       3       6     267     265    1010    0.00
    10/19/2014 13:00      35    50.3      0.10        79.5      80.0      53.3       2       5     128     145    1010    0.00
    10/19/2014 13:10      35    50.1      0.10        79.7      80.2      53.3       2       6     143     134    1010    0.00
    10/19/2014 13:20      34    49.3      0.10        80.0      80.5      53.3       2       5     140     162    1010    0.00
    10/19/2014 13:30      33    49.5      0.10        80.7      81.8      53.3       2       5     199     179    1009    0.00
    10/19/2014 13:40      33    49.3      0.10        81.1      81.8      53.3       2       7     146     154    1009    0.00
    10/19/2014 13:50      33    49.6      0.10        80.8      81.8      53.3       2       6     223     159    1009    0.00
    10/19/2014 14:00      35    50.3      0.10        81.8      82.3      53.3       3       7     188     165    1009    0.00
    10/19/2014 14:10      35    51.5      0.10        81.9      83.1      53.3       2       8     212     181    1009    0.00
    10/19/2014 14:20      36    51.7      0.10        82.1      83.2      53.3       2       6     257     263    1009    0.00
    10/19/2014 14:30      36    52.0      0.10        81.8      83.2      53.3       3       7     243     247    1009    0.00
    10/19/2014 14:40      37    52.5      0.10        81.3      83.2      53.3       3       7     228     201    1009    0.00
    10/19/2014 14:50      36    52.4      0.10        81.9      83.2      53.3       4       7     193     188    1009    0.00
    10/19/2014 15:00      36    52.4      0.10        81.7      83.2      53.3       3       6     220     250    1009    0.00
    10/19/2014 15:10      36    52.0      0.10        81.4      83.2      53.3       2       6     243     252    1009    0.00
    10/19/2014 15:20      43    53.8      0.10        80.4      83.2      53.3       3       8     183     184    1009    0.00
    10/19/2014 15:30      37    53.0      0.10        79.8      83.2      53.3       3       7     215     155    1009    0.00
    10/19/2014 15:40      36    50.1      0.10        80.5      83.2      53.3       2       8     243     255    1009    0.00
    10/19/2014 15:50      40    51.3      0.10        79.0      83.2      53.3       5       8     270     257    1009    0.00
    10/19/2014 16:00      41    52.0      0.10        77.9      83.2      53.3       3       6     272     262    1009    0.00
    10/19/2014 16:10      42    52.5      0.10        77.2      83.2      53.3       3       8     270     252    1009    0.00
    10/19/2014 16:20      41    51.4      0.10        77.2      83.2      53.3       3       7     263     248    1009    0.00
    10/19/2014 16:30      41    51.5      0.10        76.8      83.2      53.3       3       6     262     252    1009    0.00
    10/19/2014 16:40      43    51.9      0.10        76.6      83.2      53.3       1       3     242     261    1009    0.00
    10/19/2014 16:50      49    53.3      0.10        76.1      83.2      53.3       2       4     189     201    1009    0.00
    10/19/2014 17:00      54    55.4      0.10        75.2      83.2      53.3       2       4     165     172    1009    0.00
    10/19/2014 17:10      56    57.1      0.10        74.3      83.2      53.3       2       4     158     131    1009    0.00
    10/19/2014 17:20      58    57.2      0.10        73.4      83.2      53.3       3       5     149     138    1009    0.00
    10/19/2014 17:30      59    57.4      0.10        72.6      83.2      53.3       3       5     170     187    1009    0.00
    10/19/2014 17:40      53    54.9      0.10        71.8      83.2      53.3       1       3     222     204    1009    0.00
    10/19/2014 17:50      53    53.6      0.10        71.3      83.2      53.3       2       5     246     244    1010    0.00
    10/19/2014 18:00      54    53.7      0.10        71.0      83.2      53.3       0       2     259     251    1010    0.00
    10/19/2014 18:10      55    53.6      0.10        70.6      83.2      53.3       1       4     268     261    1010    0.00
    10/19/2014 18:20      57    53.7      0.10        70.2      83.2      53.3       0       1     229     227    1010    0.00
    10/19/2014 18:30      58    53.7      0.10        69.3      83.2      53.3       0       3     247     276    1010    0.00
    10/19/2014 18:40      59    53.9      0.10        68.9      83.2      53.3       0       1     184     170    1010    0.00
    10/19/2014 18:50      60    54.0      0.10        68.8      83.2      53.3       0       1     217     213    1010    0.00
    10/19/2014 19:00      60    54.2      0.10        68.4      83.2      53.3       0       1     290     294    1010    0.00
    10/19/2014 19:10      61    54.3      0.10        68.3      83.2      53.3       0       2     284     273    1010    0.00
    10/19/2014 19:20      61    54.4      0.10        68.2      83.2      53.3       0       0       0     278    1010    0.00
    10/19/2014 19:30      63    54.2      0.10        67.8      83.2      53.3       0       0       0     304    1010    0.00
    10/19/2014 19:40      65    54.3      0.10        67.1      83.2      53.3       1       3     132     149    1010    0.00
    10/19/2014 19:50      65    54.5      0.10        66.6      83.2      53.3       0       1     131     132    1010    0.00
    10/19/2014 20:00      66    54.5      0.10        66.3      83.2      53.3       0       0      90     105    1010    0.00
    10/19/2014 20:10      67    54.6      0.10        66.0      83.2      53.3       0       2     103      95    1010    0.00
    10/19/2014 20:20      71    55.3      0.10        65.8      83.2      53.3       0       2     103      93    1010    0.00
    10/19/2014 20:30      70    55.9      0.10        65.8      83.2      53.3       0       0       0     112    1011    0.00
    10/19/2014 20:40      72    55.9      0.10        65.4      83.2      53.3       0       0       0     227    1011    0.00
    10/19/2014 20:50      74    56.3      0.10        65.1      83.2      53.3       0       1     100     100    1011    0.00
    10/19/2014 21:00      75    56.4      0.10        64.7      83.2      53.3       0       1      90      92    1011    0.00
    10/19/2014 21:10      77    57.1      0.10        64.6      83.2      53.3       0       2      76      73    1011    0.00
    10/19/2014 21:20      76    57.3      0.10        65.0      83.2      53.3       0       1      81      88    1011    0.00
    10/19/2014 21:30      77    57.3      0.10        64.9      83.2      53.3       1       2      59      29    1011    0.00
    10/19/2014 21:40      76    57.4      0.10        65.0      83.2      53.3       1       3      68      70    1011    0.00
    10/19/2014 21:50      76    57.6      0.10        65.2      83.2      53.3       1       3      65      37    1011    0.00
    10/19/2014 22:00      77    57.6      0.10        65.1      83.2      53.3       2       4      55      52    1011    0.00
    10/19/2014 22:10      77    57.5      0.10        64.9      83.2      53.3       1       2      57      35    1011    0.00
    10/19/2014 22:20      78    57.6      0.10        64.7      83.2      53.3       1       3      54      67    1011    0.00
    10/19/2014 22:30      79    57.6      0.10        64.4      83.2      53.3       1       3      44      19    1011    0.00
    10/19/2014 22:40      80    57.6      0.10        64.1      83.2      53.3       1       2      54      46    1011    0.00
    10/19/2014 22:50      81    57.5      0.10        63.8      83.2      53.3       1       3      64      51    1011    0.00
    10/19/2014 23:00      81    57.5      0.10        63.5      83.2      53.3       0       2      74      77    1011    0.00
    10/19/2014 23:10      82    57.5      0.10        63.2      83.2      53.3       1       2      54      66    1011    0.00
    10/19/2014 23:20      83    57.8      0.10        63.2      83.2      53.3       1       3      52      58    1011    0.00
    10/19/2014 23:30      83    58.0      0.10        63.2      83.2      53.3       2       3      42      56    1011    0.00
    10/19/2014 23:40      84    58.0      0.10        63.1      83.2      53.3       2       5      63      54    1011    0.00
    10/19/2014 23:50      85    58.4      0.10        63.1      83.2      53.3       2       4     100      94    1011    0.00
    10/20/2014 00:00      86    58.8      0.10        63.1      83.2      53.3       2       5      66      71    1011    0.00
    10/20/2014 00:10      87    58.9      0.10        63.0      63.2      62.8       2       4      82      83    1011    0.00
    10/20/2014 00:20      87    59.0      0.10        63.0      63.3      62.8       1       3      94     117    1011    0.00
    10/20/2014 00:30      87    59.1      0.10        63.1      63.3      62.8       1       2       9     347    1011    0.00
    10/20/2014 00:40      87    59.1      0.10        63.0      63.3      62.8       1       4       9      14    1011    0.00
    10/20/2014 00:50      87    59.0      0.10        62.9      63.3      62.8       1       3      87      41    1011    0.00
    10/20/2014 01:00      87    59.0      0.10        62.9      63.3      62.8       1       4      31      40    1011    0.00
    10/20/2014 01:10      87    58.8      0.10        62.7      63.3      62.5       2       3      59      50    1011    0.00
    10/20/2014 01:20      88    58.8      0.10        62.5      63.3      62.3       2       3     102      68    1011    0.00
    10/20/2014 01:30      88    58.8      0.10        62.5      63.3      62.3       1       3      98     336    1011    0.00
    10/20/2014 01:40      87    58.8      0.10        62.5      63.3      62.3       2       4     352     324    1011    0.00
    10/20/2014 01:50      87    58.5      0.10        62.3      63.3      62.0       1       3      77      44    1011    0.00
    10/20/2014 02:00      87    58.4      0.10        62.2      63.3      62.0       0       1      90     137    1011    0.00
    10/20/2014 02:10      87    58.2      0.10        62.0      63.3      61.7       0       1      33      65    1011    0.00
    10/20/2014 02:20      87    58.0      0.10        61.8      63.3      61.5       0       1     267     259    1011    0.00
    10/20/2014 02:30      88    57.7      0.10        61.5      63.3      61.2       1       3     232     245    1011    0.00
    10/20/2014 02:40      88    57.4      0.10        61.1      63.3      60.9       0       3     281     265    1011    0.00
    10/20/2014 02:50      88    57.3      0.10        60.8      63.3      60.6       0       2     288     278    1011    0.00
    10/20/2014 03:00      88    57.3      0.10        60.8      63.3      60.6       0       1     294     292    1011    0.00
    10/20/2014 03:10      89    57.4      0.10        60.8      63.3      60.6       0       2     292     296    1011    0.00
    10/20/2014 03:20      89    57.6      0.10        60.9      63.3      60.6       0       1     315     352    1011    0.00
    10/20/2014 03:30      89    57.6      0.10        60.9      63.3      60.6       1       2     318     339    1011    0.00
    10/20/2014 03:40      89    57.6      0.10        60.8      63.3      60.5       1       3     298     283    1011    0.00
    10/20/2014 03:50      90    57.4      0.10        60.5      63.3      60.3       1       2     244     297    1011    0.00
    10/20/2014 04:00      90    57.4      0.10        60.3      63.3      60.1       0       2     279     233    1011    0.00
    10/20/2014 04:10      90    57.4      0.10        60.4      63.3      60.1       1       2     211     206    1011    0.00
    10/20/2014 04:20      90    57.3      0.10        60.1      63.3      59.9       1       3     220     275    1011    0.00
    10/20/2014 04:30      90    57.4      0.10        60.2      63.3      59.9       1       2     227     273    1011    0.00
    10/20/2014 04:40      91    57.6      0.10        60.4      63.3      59.9       0       1     162     147    1011    0.00
    10/20/2014 04:50      91    57.7      0.10        60.5      63.3      59.9       0       1     254     246    1011    0.00
    10/20/2014 05:00      91    57.7      0.10        60.4      63.3      59.9       1       2     283     254    1011    0.00
    10/20/2014 05:10      91    57.7      0.10        60.4      63.3      59.9       0       1     317     335    1011    0.00
    10/20/2014 05:20      91    57.6      0.10        60.3      63.3      59.9       1       3     329     340    1012    0.00
    10/20/2014 05:30      91    57.5      0.10        60.2      63.3      59.9       1       2     328      15    1011    0.00
    10/20/2014 05:40      91    57.3      0.10        60.0      63.3      59.7       1       2     315     309    1012    0.00
    10/20/2014 05:50      91    57.2      0.10        59.9      63.3      59.7       1       2     323      63    1012    0.00
    10/20/2014 06:00      91    57.4      0.10        60.0      63.3      59.7       1       3      57      61    1012    0.00
    10/20/2014 06:10      91    57.5      0.10        60.1      63.3      59.7       0       1      17      44    1012    0.00
    10/20/2014 06:20      91    57.6      0.10        60.2      63.3      59.7       0       2      16     316    1012    0.00
    10/20/2014 06:30      91    57.6      0.10        60.3      63.3      59.7       0       1     277     260    1012    0.00
    10/20/2014 06:40      91    57.8      0.10        60.4      63.3      59.7       1       2     336     348    1012    0.00
    10/20/2014 06:50      91    57.9      0.10        60.6      63.3      59.7       0       1     331     246    1012    0.00
    10/20/2014 07:00      91    57.9      0.10        60.7      63.3      59.7       1       2     281     289    1012    0.00
    10/20/2014 07:10      90    57.6      0.10        60.5      63.3      59.7       1       2     283     242    1012    0.00
    10/20/2014 07:20      90    57.6      0.10        60.5      63.3      59.7       1       2     312     311    1012    0.00
    10/20/2014 07:30      90    57.9      0.10        60.9      63.3      59.7       1       2     302     293    1012    0.00
    10/20/2014 07:40      88    57.9      0.10        61.2      63.3      59.7       1       2     301     303    1013    0.00
    10/20/2014 07:50      88    57.9      0.10        61.5      63.3      59.7       0       2     219     264    1013    0.00
    10/20/2014 08:00      86    58.0      0.10        61.9      63.3      59.7       0       2     274     243    1013    0.00
    10/20/2014 08:10      85    58.1      0.10        62.4      63.3      59.7       1       2     275     229    1013    0.00
    10/20/2014 08:20      84    58.0      0.10        62.8      63.3      59.7       1       2     204     239    1013    0.00
    10/20/2014 08:30      80    57.9      0.10        63.6      64.0      59.7       1       3     146     169    1013    0.00
    10/20/2014 08:40      79    57.5      0.10        64.0      64.3      59.7       1       4     113     159    1013    0.00
    10/20/2014 08:50      78    57.5      0.10        64.5      64.7      59.7       2       5     161     158    1013    0.00
    10/20/2014 09:00      76    57.4      0.10        64.8      65.1      59.7       4       6     157     154    1013    0.00
    10/20/2014 09:10      75    57.4      0.10        65.4      65.8      59.7       3       7     139     162    1013    0.00
    10/20/2014 09:20      72    57.2      0.10        65.7      66.3      59.7       2       5     194     164    1013    0.00
    10/20/2014 09:30      71    57.3      0.10        66.7      67.7      59.7       2       4     238     170    1013    0.00
    10/20/2014 09:40      66    57.1      0.10        68.3      68.7      59.7       3       6     159     145    1013    0.00
    10/20/2014 09:50      70    56.5      0.10        67.4      68.7      59.7       3       5     182     179    1013    0.00
    10/20/2014 10:00      68    57.0      0.10        67.7      68.7      59.7       2       5     236     188    1013    0.00
    10/20/2014 10:10      63    57.3      0.10        69.1      69.8      59.7       3       6     157     125    1013    0.00
    10/20/2014 10:20      65    56.8      0.10        69.2      69.8      59.7       3       8     159     171    1013    0.00
    10/20/2014 10:30      64    56.9      0.10        69.6      70.0      59.7       3       6     115     100    1013    0.00
    10/20/2014 10:40      61    57.0      0.10        70.9      71.5      59.7       3       6      94     157    1013    0.00
    10/20/2014 10:50      59    56.9      0.10        71.0      71.8      59.7       2       5      97     134    1013    0.00
    10/20/2014 11:00      60    56.5      0.10        71.1      71.8      59.7       2       4     196     167    1013    0.00
    10/20/2014 11:10      60    57.2      0.10        72.0      72.5      59.7       3       6     164     164    1013    0.00
    10/20/2014 11:20      62    57.0      0.10        71.7      72.5      59.7       2       5     228     254    1013    0.00
    10/20/2014 11:30      55    57.3      0.10        72.8      73.9      59.7       2       6     172     153    1012    0.00
    10/20/2014 11:40      58    56.8      0.10        73.1      73.9      59.7       1       4      99     144    1012    0.00
    10/20/2014 11:50      55    57.2      0.10        74.1      74.9      59.7       1       4     142     178    1012    0.00
    10/20/2014 12:00      55    56.7      0.10        74.3      74.9      59.7       2       4      73      55    1012    0.00
    10/20/2014 12:10      52    56.3      0.10        74.9      75.5      59.7       2       5      69      57    1012    0.00
    10/20/2014 12:20      50    56.0      0.10        75.9      76.4      59.7       2       7     171     141    1011    0.00
    10/20/2014 12:30      48    55.6      0.10        76.1      76.4      59.7       2       6     110     132    1011    0.00
    10/20/2014 12:40      46    54.9      0.10        76.5      77.0      59.7       1       4     104      87    1011    0.00
    10/20/2014 12:50      45    54.5      0.10        77.4      78.2      59.7       2       6     100      90    1011    0.00
    10/20/2014 13:00      45    53.9      0.10        77.3      78.2      59.7       2       4      77      35    1011    0.00
    10/20/2014 13:10      39    53.0      0.10        78.0      78.6      59.7       2       6     198     163    1011    0.00
    10/20/2014 13:20      40    51.8      0.10        78.9      79.4      59.7       2       5     135     123    1011    0.00
    10/20/2014 13:30      38    51.8      0.10        79.0      79.8      59.7       1       3     292     191    1011    0.00
    10/20/2014 13:40      39    51.8      0.10        80.1      80.7      59.7       2       5     133     180    1011    0.00
    10/20/2014 13:50      41    52.9      0.10        79.4      80.7      59.7       3       6     162     192    1010    0.00
    10/20/2014 14:00      40    54.1      0.10        79.5      80.7      59.7       3       7     133      96    1010    0.00
    10/20/2014 14:10      39    53.5      0.10        79.8      80.7      59.7       2       7     129     148    1010    0.00
    10/20/2014 14:20      38    52.8      0.10        80.2      80.9      59.7       2       5      51      62    1010    0.00
    10/20/2014 14:30      39    52.8      0.10        80.4      80.9      59.7       2       5      46      98    1010    0.00
    10/20/2014 14:40      37    53.2      0.10        80.6      81.3      59.7       3       7     131     164    1010    0.00
    10/20/2014 14:50      37    52.3      0.10        80.6      81.3      59.7       3       8     108     126    1010    0.00
    10/20/2014 15:00      38    52.5      0.10        80.3      81.3      59.7       3       6      73      75    1010    0.00
    10/20/2014 15:10      41    54.2      0.10        80.3      81.3      59.7       3       6     135     153    1010    0.00
    10/20/2014 15:20      43    55.2      0.10        80.8      81.3      59.7       4       7     137     140    1010    0.00
    10/20/2014 15:30      45    55.9      0.10        79.3      81.3      59.7       3       6     116      95    1010    0.00
    10/20/2014 15:40      46    56.2      0.10        79.2      81.3      59.7       3       7     142     149    1010    0.00
    10/20/2014 15:50      46    56.2      0.10        79.0      81.3      59.7       2       5     121     152    1010    0.00
    10/20/2014 16:00      48    56.4      0.10        78.2      81.3      59.7       4       7     152     141    1010    0.00
    10/20/2014 16:10      49    56.3      0.10        77.2      81.3      59.7       3       6     169     162    1010    0.00
    10/20/2014 16:20      49    56.1      0.10        76.8      81.3      59.7       3       6     189     186    1010    0.00
    10/20/2014 16:30      49    55.7      0.10        76.4      81.3      59.7       2       6     228     255    1010    0.00
    10/20/2014 16:40      50    55.6      0.10        76.0      81.3      59.7       2       4     257     242    1010    0.00
    10/20/2014 16:50      51    55.6      0.10        75.2      81.3      59.7       4       7     258     237    1010    0.00
    10/20/2014 17:00      53    55.6      0.10        74.1      81.3      59.7       4       7     272     246    1010    0.00
    10/20/2014 17:10      55    55.6      0.10        73.2      81.3      59.7       3       8     281     255    1010    0.00
    10/20/2014 17:20      57    55.7      0.10        72.2      81.3      59.7       3       8     271     254    1010    0.00
    10/20/2014 17:30      58    55.8      0.10        71.6      81.3      59.7       4       7     256     253    1010    0.00
    10/20/2014 17:40      60    56.0      0.10        70.9      81.3      59.7       4       8     267     248    1010    0.00
    10/20/2014 17:50      61    56.0      0.10        70.2      81.3      59.7       4       9     253     253    1010    0.00
    10/20/2014 18:00      62    56.0      0.10        69.7      81.3      59.7       4       8     261     254    1011    0.00
    10/20/2014 18:10      63    55.9      0.10        69.2      81.3      59.7       4       8     268     244    1011    0.00
    10/20/2014 18:20      64    55.8      0.10        68.7      81.3      59.7       4       6     254     247    1011    0.00
    10/20/2014 18:30      65    55.8      0.10        68.3      81.3      59.7       3       7     247     244    1011    0.00
    10/20/2014 18:40      66    55.8      0.10        67.7      81.3      59.7       1       5     236     260    1011    0.00
    10/20/2014 18:50      67    55.7      0.10        67.2      81.3      59.7       1       3     232     203    1011    0.00
    10/20/2014 19:00      68    55.8      0.10        66.9      81.3      59.7       2       4     220     209    1011    0.00
    10/20/2014 19:10      68    55.8      0.10        66.9      81.3      59.7       0       1     268     265    1011    0.00
    10/20/2014 19:20      67    55.8      0.10        66.9      81.3      59.7       1       3     277     287    1011    0.00
    10/20/2014 19:30      68    55.7      0.10        66.7      81.3      59.7       0       3     273     251    1011    0.00
    10/20/2014 19:40      69    55.7      0.10        66.2      81.3      59.7       0       1     291     291    1011    0.00
    10/20/2014 19:50      70    55.6      0.10        65.8      81.3      59.7       0       1     279     237    1011    0.00
    10/20/2014 20:00      71    55.4      0.10        65.3      81.3      59.7       0       0       0     141    1011    0.00
    10/20/2014 20:10      70    54.9      0.10        64.7      81.3      59.7       2       3     176     185    1011    0.00
    10/20/2014 20:20      71    54.7      0.10        64.3      81.3      59.7       2       3     162     184    1011    0.00
    10/20/2014 20:30      70    54.5      0.10        64.4      81.3      59.7       1       3     177     181    1011    0.00
    10/20/2014 20:40      72    54.5      0.10        63.9      81.3      59.7       0       1     179     194    1011    0.00
    10/20/2014 20:50      73    54.5      0.10        63.6      81.3      59.7       0       0       0     176    1012    0.00
    10/20/2014 21:00      74    54.5      0.10        63.2      81.3      59.7       0       1     285     286    1012    0.00
    10/20/2014 21:10      75    54.5      0.10        62.9      81.3      59.7       0       1     288     291    1012    0.00
    10/20/2014 21:20      75    54.6      0.10        62.6      81.3      59.7       0       0       0      20    1012    0.00
    10/20/2014 21:30      76    54.4      0.10        62.2      81.3      59.7       0       0       0      46    1012    0.00
    10/20/2014 21:40      77    54.5      0.10        61.8      81.3      59.7       0       0       0      46    1012    0.00
    10/20/2014 21:50      79    54.5      0.10        61.4      81.3      59.7       0       0       0     136    1012    0.00
    10/20/2014 22:00      78    54.8      0.10        61.5      81.3      59.7       0       0       0     134    1012    0.00
    10/20/2014 22:10      79    54.4      0.10        61.3      81.3      59.7       0       1     105      97    1012    0.00
    10/20/2014 22:20      79    54.5      0.10        61.1      81.3      59.7       0       0       0     103    1012    0.00
    10/20/2014 22:30      79    54.6      0.10        61.0      81.3      59.7       0       1      84      82    1012    0.00
    10/20/2014 22:40      80    54.3      0.10        60.7      81.3      59.7       0       1     297     295    1012    0.00
    10/20/2014 22:50      79    54.4      0.10        60.6      81.3      59.7       0       1     292     292    1012    0.00
    10/20/2014 23:00      80    54.1      0.10        60.2      81.3      59.7       0       0     295     295    1012    0.00
    10/20/2014 23:10      81    54.4      0.10        60.2      81.3      59.7       0       2     332     334    1012    0.00
    10/20/2014 23:20      80    54.5      0.10        60.3      81.3      59.7       1       2     312     319    1012    0.00
    10/20/2014 23:30      81    54.1      0.10        60.0      81.3      59.7       0       2     321     319    1012    0.00
    10/20/2014 23:40      82    54.2      0.10        59.9      81.3      59.6       1       2      39      33    1012    0.00
    10/20/2014 23:50      81    54.4      0.10        60.0      81.3      59.6       0       2      47      36    1012    0.00
    10/21/2014 00:00      81    54.4      0.10        60.1      81.3      59.6       1       4      30      37    1012    0.00
    10/21/2014 00:10      80    54.0      0.10        60.3      60.7      59.7       0       2      14       5    1012    0.00
    10/21/2014 00:20      82    53.9      0.10        59.7      60.7      59.5       0       1      17      16    1012    0.00
    10/21/2014 00:30      82    54.2      0.10        59.6      60.7      59.4       1       2      52      33    1012    0.00
    10/21/2014 00:40      82    54.5      0.10        59.8      60.7      59.4       1       3      39      21    1012    0.00
    10/21/2014 00:50      85    54.9      0.10        59.9      60.8      59.4       2       3      78      76    1012    0.00
    10/21/2014 01:00      84    55.4      0.10        60.1      60.9      59.4       1       2     147     134    1011    0.00
    10/21/2014 01:10      86    55.7      0.10        59.9      60.9      59.4       2       4     178     252    1011    0.00
    10/21/2014 01:20      87    56.3      0.10        60.1      60.9      59.4       2       5     131     148    1011    0.00
    10/21/2014 01:30      87    56.3      0.10        60.2      60.9      59.4       1       3     130      98    1011    0.00
    10/21/2014 01:40      87    55.6      0.10        59.5      60.9      59.2       1       3     156     154    1011    0.00
    10/21/2014 01:50      87    55.1      0.10        59.0      60.9      58.7       0       1     138     201    1011    0.00
    10/21/2014 02:00      87    54.4      0.10        58.4      60.9      58.0       1       4     256     255    1011    0.00
    10/21/2014 02:10      87    54.1      0.10        58.0      60.9      57.7       0       1     182     205    1011    0.00
    10/21/2014 02:20      87    53.9      0.10        57.7      60.9      57.5       0       3     184     175    1011    0.00
    10/21/2014 02:30      87    53.6      0.10        57.5      60.9      57.3       0       1     311     317    1011    0.00
    10/21/2014 02:40      87    53.3      0.10        57.3      60.9      57.0       1       2     222     317    1011    0.00
    10/21/2014 02:50      86    53.2      0.10        57.2      60.9      56.9       0       0       0       0    1011    0.00
    10/21/2014 03:00      86    53.0      0.10        57.0      60.9      56.7       0       2     239     178    1011    0.00
    10/21/2014 03:10      86    52.7      0.10        56.7      60.9      56.4       0       1     217     232    1011    0.00
    10/21/2014 03:20      87    52.7      0.10        56.6      60.9      56.4       1       4     139     141    1011    0.00
    10/21/2014 03:30      87    52.5      0.10        56.4      60.9      56.2       0       2     197     152    1011    0.00
    10/21/2014 03:40      87    52.7      0.10        56.5      60.9      56.1       2       4     258     248    1011    0.00
    10/21/2014 03:50      85    53.2      0.10        57.1      60.9      56.1       1       5     280     293    1011    0.00
    10/21/2014 04:00      79    53.3      0.10        59.4      60.9      56.1       2       5     241     258    1011    0.00
    10/21/2014 04:10      82    52.4      0.10        58.4      60.9      56.1       1       4     122     136    1011    0.00
    10/21/2014 04:20      83    52.3      0.10        57.5      60.9      56.1       1       2     147     139    1011    0.00
    10/21/2014 04:30      83    52.2      0.10        57.2      60.9      56.1       2       7     253     253    1011    0.00
    10/21/2014 04:40      84    52.4      0.10        57.4      60.9      56.1       1       4     260     252    1011    0.00
    10/21/2014 04:50      84    51.9      0.10        56.7      60.9      56.1       0       2     203     217    1011    0.00
    10/21/2014 05:00      86    52.0      0.10        56.4      60.9      56.1       1       4     207     187    1011    0.00
    10/21/2014 05:10      86    52.5      0.10        56.5      60.9      56.1       1       2     152     106    1011    0.00
    10/21/2014 05:20      86    52.5      0.10        56.5      60.9      56.1       1       3     131     102    1011    0.00
    10/21/2014 05:30      87    52.3      0.10        56.3      60.9      55.9       1       2     122     132    1011    0.00
    10/21/2014 05:40      87    52.6      0.10        56.5      60.9      55.9       1       3     122      63    1011    0.00
    10/21/2014 05:50      87    52.3      0.10        56.1      60.9      55.8       1       4     138     151    1011    0.00
    10/21/2014 06:00      88    51.8      0.10        55.5      60.9      55.0       2       4     144     152    1011    0.00
    10/21/2014 06:10      88    52.0      0.10        55.5      60.9      55.0       2       4     156     147    1011    0.00
    10/21/2014 06:20      88    52.0      0.10        55.4      60.9      55.0       1       3     141     167    1012    0.00
    10/21/2014 06:30      88    52.0      0.10        55.4      60.9      55.0       1       3     201     197    1012    0.00
    10/21/2014 06:40      89    52.2      0.10        55.6      60.9      55.0       1       2     138      99    1012    0.00
    10/21/2014 06:50      88    52.5      0.10        55.8      60.9      55.0       2       4     171     174    1012    0.00
    10/21/2014 07:00      88    53.1      0.10        56.5      60.9      55.0       1       3     176     179    1012    0.00
    10/21/2014 07:10      88    53.6      0.10        57.1      60.9      55.0       1       3     189     215    1012    0.00
    10/21/2014 07:20      85    53.8      0.10        58.0      60.9      55.0       1       4     240     261    1012    0.00
    10/21/2014 07:30      80    54.1      0.10        59.4      60.9      55.0       2       6     224     255    1012    0.00
    10/21/2014 07:40      78    54.1      0.10        60.6      61.2      55.0       2       6     253     236    1012    0.00
    10/21/2014 07:50      76    54.3      0.10        61.5      62.1      55.0       3       6     244     256    1012    0.00
    10/21/2014 08:00      73    54.4      0.10        62.6      63.3      55.0       2       5     230     194    1012    0.00
    10/21/2014 08:10      70    54.2      0.10        63.6      64.3      55.0       2       6     224     196    1012    0.00
    10/21/2014 08:20      67    53.9      0.10        64.5      65.3      55.0       3       6     218     206    1012    0.00
    10/21/2014 08:30      62    53.0      0.10        65.4      65.9      55.0       3       5     195     185    1012    0.00
    10/21/2014 08:40      58    52.8      0.10        66.7      67.8      55.0       3       5     172     174    1012    0.00
    10/21/2014 08:50      57    52.3      0.10        67.7      68.4      55.0       3       4     178     150    1012    0.00
    10/21/2014 09:00      54    51.9      0.10        69.0      69.4      55.0       2       4     171     186    1012    0.00
    10/21/2014 09:10      53    51.2      0.10        69.7      70.4      55.0       3       6     189     196    1012    0.00
    10/21/2014 09:20      47    50.8      0.10        70.7      71.8      55.0       2       4     191     209    1012    0.00
    10/21/2014 09:30      43    49.6      0.10        72.2      72.9      55.0       1       3     205     234    1012    0.00
    10/21/2014 09:40      43    49.2      0.10        72.8      73.4      55.0       2       4     212     218    1012    0.00
    10/21/2014 09:50      38    48.2      0.10        73.5      73.9      55.0       2       4     163     136    1012    0.00
    10/21/2014 10:00      35    46.3      0.10        74.4      75.3      55.0       2       4     151     148    1012    0.00
    10/21/2014 10:10      34    45.4      0.10        75.4      75.7      55.0       1       3     112     166    1012    0.00
    10/21/2014 10:20      30    44.9      0.10        76.3      76.9      55.0       2       4     233     285    1012    0.00
    10/21/2014 10:30      27    42.9      0.10        77.9      78.3      55.0       2       4     181     176    1012    0.00
    10/21/2014 10:40      26    40.6      0.10        77.8      78.5      55.0       1       3     152     206    1012    0.00
    10/21/2014 10:50      25    41.2      0.10        78.6      79.0      55.0       3       7     197     197    1012    0.00
    10/21/2014 11:00      24    40.9      0.10        78.3      79.6      55.0       3       8     211     209    1012    0.00
    10/21/2014 11:10      25    40.1      0.10        78.6      79.6      55.0       2       6     197     138    1011    0.00
    10/21/2014 11:20      24    40.0      0.10        79.6      80.4      55.0       2       5     175     242    1011    0.00
    10/21/2014 11:30      23    39.4      0.10        80.5      80.8      55.0       2       4      90      26    1011    0.00
    10/21/2014 11:40      24    39.5      0.10        79.7      80.8      55.0       2       4      24       2    1011    0.00
    10/21/2014 11:50      23    40.7      0.10        80.4      81.2      55.0       3       7     164     153    1011    0.00
    10/21/2014 12:00      24    39.6      0.10        81.0      81.4      55.0       2       6     161     162    1010    0.00
    10/21/2014 12:10      25    40.9      0.10        81.0      81.5      55.0       4       7     180     164    1010    0.00
    10/21/2014 12:20      23    40.2      0.10        81.4      82.1      55.0       3       7     229     251    1010    0.00
    10/21/2014 12:30      23    39.2      0.10        81.9      82.4      55.0       3       7     213     205    1010    0.00
    10/21/2014 12:40      25    40.8      0.10        81.0      82.4      55.0       3       8     174     187    1010    0.00
    10/21/2014 12:50      24    40.5      0.10        81.2      82.4      55.0       3       8     211     174    1009    0.00
    10/21/2014 13:00      23    38.4      0.10        81.2      82.4      55.0       2       6     193     190    1009    0.00
    10/21/2014 13:10      23    39.2      0.10        80.3      82.4      55.0       3       6     227     261    1009    0.00
    10/21/2014 13:20      22    40.4      0.10        79.6      82.4      55.0       3       4     168     171    1009    0.00
    10/21/2014 13:30      20    38.8      0.10        80.8      82.4      55.0       0       2     169     178    1009    0.00
    10/21/2014 13:40      18    38.3      0.10        83.0      83.7      55.0       1       5     152     176    1009    0.00
    10/21/2014 13:50      32    41.2      0.10        83.9      84.4      55.0       4      10     148     168    1009    0.00
    10/21/2014 14:00      37    50.3      0.10        80.7      84.4      55.0       6      11     160     148    1009    0.00
    10/21/2014 14:10      36    50.4      0.10        79.9      84.4      55.0       4      11     162     130    1009    0.00
    10/21/2014 14:20      36    50.7      0.10        80.0      84.4      55.0       4       7     129     164    1009    0.00
    10/21/2014 14:30      29    49.2      0.10        79.6      84.4      55.0       5      11     121     152    1009    0.00
    10/21/2014 14:40      28    44.3      0.10        79.2      84.4      55.0       4      10     246     253    1009    0.00
    10/21/2014 14:50      28    44.5      0.10        79.9      84.4      55.0       4       9     260     253    1009    0.00
    10/21/2014 15:00      29    44.9      0.10        79.5      84.4      55.0       4      10     260     263    1009    0.00
    10/21/2014 15:10      32    45.0      0.10        79.7      84.4      55.0       3       8     263     252    1009    0.00
    10/21/2014 15:20      30    44.9      0.10        79.2      84.4      55.0       3       9     254     253    1009    0.00
    10/21/2014 15:30      29    45.1      0.10        79.4      84.4      55.0       3       6     243     242    1009    0.00
    10/21/2014 15:40      29    44.8      0.10        79.3      84.4      55.0       2       5     237     236    1009    0.00
    10/21/2014 15:50      31    44.8      0.10        78.4      84.4      55.0       2       5     234     241    1009    0.00
    10/21/2014 16:00      31    44.7      0.10        77.7      84.4      55.0       1       4     271     253    1009    0.00
    10/21/2014 16:10      32    44.7      0.10        77.4      84.4      55.0       2       7     223     184    1009    0.00
    10/21/2014 16:20      33    45.1      0.10        76.8      84.4      55.0       3       6     199     188    1009    0.00
    10/21/2014 16:30      32    44.8      0.10        76.6      84.4      55.0       2       6     254     227    1009    0.00
    10/21/2014 16:40      33    45.1      0.10        76.5      84.4      55.0       2       4     257     245    1009    0.00
    10/21/2014 16:50      34    45.7      0.10        76.3      84.4      55.0       2       6     273     248    1009    0.00
    10/21/2014 17:00      36    46.1      0.10        75.7      84.4      55.0       3       7     270     253    1009    0.00
    10/21/2014 17:10      39    46.7      0.10        74.8      84.4      55.0       3       7     284     301    1009    0.00
    10/21/2014 17:20      41    47.8      0.10        73.7      84.4      55.0       2       5     288     289    1009    0.00
    10/21/2014 17:30      43    48.5      0.10        72.9      84.4      55.0       2       5     278     246    1009    0.00
    10/21/2014 17:40      45    49.1      0.10        72.3      84.4      55.0       1       3     293     283    1009    0.00
    10/21/2014 17:50      47    49.7      0.10        71.6      84.4      55.0       0       2     292     292    1009    0.00
    10/21/2014 18:00      49    50.1      0.10        70.8      84.4      55.0       0       1      32      32    1010    0.00
    10/21/2014 18:10      49    50.4      0.10        70.4      84.4      55.0       1       2     199     204    1010    0.00
    10/21/2014 18:20      50    50.4      0.10        70.0      84.4      55.0       1       2     172     180    1010    0.00
    10/21/2014 18:30      51    50.6      0.10        69.4      84.4      55.0       0       2     118      58    1010    0.00
    10/21/2014 18:40      52    50.9      0.10        69.7      84.4      55.0       0       1      72      79    1010    0.00
    10/21/2014 18:50      57    53.2      0.10        69.9      84.4      55.0       2       4      56      69    1010    0.00
    10/21/2014 19:00      60    54.5      0.10        69.9      84.4      55.0       1       3      76      71    1010    0.00
    10/21/2014 19:10      61    55.1      0.10        69.4      84.4      55.0       1       3      90     104    1010    0.00
    10/21/2014 19:20      53    53.5      0.10        69.0      84.4      55.0       2       3      73      65    1010    0.00
    10/21/2014 19:30      42    48.8      0.10        69.1      84.4      55.0       3       6      58      38    1010    0.00
    10/21/2014 19:40      36    43.4      0.10        69.6      84.4      55.0       4       7      48      44    1010    0.00
    10/21/2014 19:50      35    41.4      0.10        69.7      84.4      55.0       3       6      41      44    1010    0.00
    10/21/2014 20:00      34    40.7      0.10        69.8      84.4      55.0       3       6      37      50    1010    0.00
    10/21/2014 20:10      40    41.1      0.10        69.5      84.4      55.0       1       3     340      32    1010    0.00
    10/21/2014 20:20      49    44.2      0.10        67.7      84.4      55.0       0       2     305     290    1010    0.00
    10/21/2014 20:30      56    49.1      0.10        66.4      84.4      55.0       1       3     313     303    1010    0.00
    10/21/2014 20:40      56    50.2      0.10        66.3      84.4      55.0       1       4     305     292    1011    0.00
    10/21/2014 20:50      57    50.2      0.10        65.9      84.4      55.0       1       2     311     282    1011    0.00
    10/21/2014 21:00      58    50.3      0.10        65.6      84.4      55.0       1       2     332     341    1011    0.00
    10/21/2014 21:10      58    49.9      0.10        65.3      84.4      55.0       0       2     298     233    1011    0.00
    10/21/2014 21:20      59    50.1      0.10        64.6      84.4      55.0       0       2       7      36    1011    0.00
    10/21/2014 21:30      62    50.0      0.10        64.0      84.4      55.0       0       1      43      80    1011    0.00
    10/21/2014 21:40      61    50.2      0.10        63.3      84.4      55.0       1       4     297     294    1011    0.00
    10/21/2014 21:50      63    50.3      0.10        63.6      84.4      55.0       1       3     250     237    1011    0.00
    10/21/2014 22:00      62    50.5      0.10        63.5      84.4      55.0       2       4     138     125    1011    0.00
    10/21/2014 22:10      61    50.3      0.10        64.3      84.4      55.0       1       3     140      83    1011    0.00
    10/21/2014 22:20      57    49.9      0.10        64.0      84.4      55.0       1       5      63      72    1011    0.00
    10/21/2014 22:30      34    42.1      0.10        65.9      84.4      55.0       4       7      31      48    1011    0.00
    10/21/2014 22:40      50    40.6      0.10        67.3      84.4      55.0       2       6     284     263    1011    0.00
    10/21/2014 22:50      57    47.6      0.10        64.7      84.4      55.0       1       4     260     264    1011    0.00
    10/21/2014 23:00      63    49.1      0.10        62.9      84.4      55.0       1       3     312     277    1011    0.00
    10/21/2014 23:10      64    50.0      0.10        62.5      84.4      55.0       1       3     308     338    1011    0.00
    10/21/2014 23:20      63    50.2      0.10        62.4      84.4      55.0       1       4      76     262    1011    0.00
    10/21/2014 23:30      66    50.0      0.10        61.6      84.4      55.0       1       2     221     266    1011    0.00
    10/21/2014 23:40      67    50.0      0.10        61.0      84.4      55.0       1       3     301     251    1011    0.00
    10/21/2014 23:50      68    50.1      0.10        61.0      84.4      55.0       1       3     295     342    1011    0.00
    10/22/2014 00:00      69    50.0      0.10        60.7      84.4      55.0       1       3     309     350    1011    0.00
    10/22/2014 00:10      68    50.0      0.10        60.5      60.9      59.8       0       2     330     341    1011    0.00
    10/22/2014 00:20      70    49.9      0.10        59.8      60.9      59.6       1       3     293     286    1011    0.00